createdAt,value
2018-03-03T00:00:30.499Z,91.20
2018-03-03T00:02:57.960Z,91.10
2018-03-03T00:05:25.407Z,91.00
2018-03-03T00:07:52.852Z,91.20
2018-03-03T00:10:20.324Z,91.40
2018-03-03T00:12:47.792Z,91.40
2018-03-03T00:15:15.270Z,91.40
2018-03-03T00:17:43.495Z,91.50
2018-03-03T00:20:10.943Z,91.50
2018-03-03T00:22:41.206Z,91.90
2018-03-03T00:25:10.034Z,94.10
2018-03-03T00:27:37.511Z,94.00
2018-03-03T00:30:04.978Z,94.40
2018-03-03T00:32:32.469Z,94.00
2018-03-03T00:35:00.694Z,93.40
2018-03-03T00:37:28.147Z,93.40
2018-03-03T00:39:55.640Z,94.00
2018-03-03T00:42:23.206Z,93.90
2018-03-03T00:44:50.683Z,93.60
2018-03-03T00:47:18.901Z,93.80
2018-03-03T00:49:46.359Z,93.80
2018-03-03T00:52:13.849Z,93.90
2018-03-03T00:54:41.388Z,93.90
2018-03-03T00:57:08.873Z,93.60
2018-03-03T00:59:37.146Z,93.30
2018-03-03T01:02:04.630Z,93.20
2018-03-03T01:04:32.087Z,93.70
2018-03-03T01:06:59.592Z,93.40
2018-03-03T01:09:27.078Z,93.00
2018-03-03T01:11:55.297Z,93.30
2018-03-03T01:14:22.796Z,93.30
2018-03-03T01:16:50.275Z,93.90
2018-03-03T01:19:18.580Z,93.50
2018-03-03T01:21:46.052Z,93.50
2018-03-03T01:24:13.540Z,93.10
2018-03-03T01:26:41.053Z,93.10
2018-03-03T01:29:08.496Z,93.30
2018-03-03T01:31:35.980Z,93.60
2018-03-03T01:34:03.478Z,93.80
2018-03-03T01:36:31.662Z,93.70
2018-03-03T01:38:59.108Z,94.60
2018-03-03T01:41:26.569Z,94.80
2018-03-03T01:43:54.819Z,94.90
2018-03-03T01:46:22.279Z,94.90
2018-03-03T01:48:50.526Z,94.90
2018-03-03T01:51:29.896Z,94.90
2018-03-03T01:53:57.462Z,94.50
2018-03-03T01:56:24.934Z,94.20
2018-03-03T01:58:53.299Z,93.60
2018-03-03T02:01:20.784Z,93.50
2018-03-03T02:03:49.004Z,92.80
2018-03-03T02:06:16.464Z,92.80
2018-03-03T02:08:43.940Z,92.70
2018-03-03T02:11:11.498Z,92.70
2018-03-03T02:13:39.041Z,92.60
2018-03-03T02:16:06.519Z,92.50
2018-03-03T02:18:33.976Z,92.50
2018-03-03T02:21:01.476Z,92.60
2018-03-03T02:23:29.439Z,92.60
2018-03-03T02:25:56.959Z,92.20
2018-03-03T02:28:24.424Z,92.30
2018-03-03T02:30:52.666Z,92.20
2018-03-03T02:33:20.160Z,92.20
2018-03-03T02:35:48.419Z,91.60
2018-03-03T02:38:15.917Z,91.60
2018-03-03T02:40:43.420Z,91.70
2018-03-03T02:43:10.942Z,91.50
2018-03-03T02:45:38.399Z,91.40
2018-03-03T02:48:05.935Z,91.10
2018-03-03T02:50:34.148Z,91.20
2018-03-03T02:53:01.627Z,91.20
2018-03-03T02:55:29.208Z,91.20
2018-03-03T02:57:57.436Z,91.40
2018-03-03T03:00:24.909Z,91.40
2018-03-03T03:02:52.395Z,91.60
2018-03-03T03:05:20.662Z,91.50
2018-03-03T03:07:48.125Z,91.50
2018-03-03T03:10:16.368Z,91.90
2018-03-03T03:12:43.873Z,91.80
2018-03-03T03:15:11.732Z,91.50
2018-03-03T03:17:40.012Z,91.30
2018-03-03T03:20:08.244Z,91.30
2018-03-03T03:22:35.771Z,91.20
2018-03-03T03:25:03.286Z,91.20
2018-03-03T03:27:30.757Z,91.40
2018-03-03T03:29:59.014Z,91.50
2018-03-03T03:32:26.496Z,91.40
2018-03-03T03:34:53.948Z,91.60
2018-03-03T03:37:22.176Z,91.20
2018-03-03T03:39:49.767Z,91.20
2018-03-03T03:42:17.264Z,90.80
2018-03-03T03:44:44.701Z,90.90
2018-03-03T03:47:12.192Z,90.70
2018-03-03T03:49:39.671Z,90.70
2018-03-03T03:52:07.152Z,90.60
2018-03-03T03:54:34.617Z,90.70
2018-03-03T03:57:02.930Z,90.40
2018-03-03T03:59:31.111Z,90.40
2018-03-03T04:01:58.593Z,90.30
2018-03-03T04:04:26.068Z,90.30
2018-03-03T04:06:53.556Z,90.30
2018-03-03T04:09:21.020Z,90.30
2018-03-03T04:11:48.506Z,90.10
2018-03-03T04:14:15.980Z,90.10
2018-03-03T04:16:43.429Z,89.90
2018-03-03T04:19:10.911Z,89.70
2018-03-03T04:21:38.388Z,90.00
2018-03-03T04:24:06.757Z,89.80
2018-03-03T04:26:34.995Z,90.00
2018-03-03T04:29:02.473Z,89.90
2018-03-03T04:31:29.924Z,89.60
2018-03-03T04:33:57.414Z,89.80
2018-03-03T04:36:25.649Z,89.30
2018-03-03T04:38:53.128Z,89.30
2018-03-03T04:41:20.606Z,89.60
2018-03-03T04:43:48.142Z,89.70
2018-03-03T04:46:15.622Z,88.90
2018-03-03T04:48:43.144Z,89.10
2018-03-03T04:51:10.654Z,88.80
2018-03-03T04:53:38.144Z,89.50
2018-03-03T04:56:05.595Z,89.70
2018-03-03T04:58:38.671Z,90.00
2018-03-03T05:01:07.101Z,90.20
2018-03-03T05:03:36.835Z,90.10
2018-03-03T05:06:04.300Z,90.10
2018-03-03T05:08:31.740Z,90.30
2018-03-03T05:10:59.567Z,90.40
2018-03-03T05:13:33.616Z,90.10
2018-03-03T05:16:06.707Z,90.10
2018-03-03T05:18:39.938Z,90.20
2018-03-03T05:21:13.156Z,90.10
2018-03-03T05:23:46.388Z,90.10
2018-03-03T05:26:19.487Z,90.40
2018-03-03T05:28:52.546Z,90.10
2018-03-03T05:31:26.821Z,90.10
2018-03-03T05:37:15.792Z,90.10
2018-03-03T05:42:57.618Z,89.70
2018-03-03T05:45:30.873Z,89.30
2018-03-03T05:51:07.447Z,88.80
2018-03-03T05:53:50.753Z,88.80
2018-03-03T05:59:43.602Z,88.80
2018-03-03T06:02:26.713Z,88.70
2018-03-03T06:04:59.772Z,88.70
2018-03-03T06:10:45.770Z,88.30
2018-03-03T06:13:13.976Z,88.80
2018-03-03T06:15:41.432Z,88.80
2018-03-03T06:18:08.918Z,88.50
2018-03-03T06:20:36.370Z,89.00
2018-03-03T06:23:03.936Z,88.60
2018-03-03T06:25:31.503Z,88.20
2018-03-03T06:27:59.050Z,88.40
2018-03-03T06:30:26.524Z,87.90
2018-03-03T06:32:54.739Z,88.50
2018-03-03T06:35:22.233Z,88.30
2018-03-03T06:37:49.750Z,87.80
2018-03-03T06:40:17.220Z,87.70
2018-03-03T06:42:44.689Z,87.90
2018-03-03T06:45:12.379Z,87.50
2018-03-03T06:47:39.848Z,87.30
2018-03-03T06:50:08.511Z,87.10
2018-03-03T06:52:35.972Z,87.10
2018-03-03T06:55:03.541Z,87.20
2018-03-03T06:57:31.099Z,87.10
2018-03-03T06:59:58.552Z,87.00
2018-03-03T07:02:26.017Z,86.70
2018-03-03T07:04:54.268Z,86.10
2018-03-03T07:07:21.716Z,86.10
2018-03-03T07:09:49.189Z,86.30
2018-03-03T07:12:16.671Z,86.00
2018-03-03T07:17:52.097Z,86.00
2018-03-03T07:20:19.546Z,86.10
2018-03-03T07:22:47.036Z,85.60
2018-03-03T07:25:14.510Z,85.50
2018-03-03T07:27:42.741Z,85.80
2018-03-03T07:30:10.230Z,85.70
2018-03-03T07:32:37.692Z,85.80
2018-03-03T07:35:05.136Z,85.40
2018-03-03T07:37:32.620Z,85.50
2018-03-03T07:40:00.098Z,85.80
2018-03-03T07:42:27.597Z,85.70
2018-03-03T07:44:55.070Z,84.70
2018-03-03T07:47:23.422Z,84.90
2018-03-03T07:49:50.904Z,84.70
2018-03-03T07:52:19.173Z,84.60
2018-03-03T07:54:47.426Z,85.40
2018-03-03T07:57:15.098Z,84.60
2018-03-03T07:59:44.470Z,84.60
2018-03-03T08:02:12.125Z,85.30
2018-03-03T08:04:40.110Z,85.20
2018-03-03T08:07:07.565Z,84.80
2018-03-03T08:09:35.821Z,84.80
2018-03-03T08:12:03.290Z,84.70
2018-03-03T08:14:30.739Z,84.80
2018-03-03T08:16:58.225Z,84.80
2018-03-03T08:19:25.669Z,84.70
2018-03-03T08:21:53.129Z,84.80
2018-03-03T08:24:20.592Z,84.40
2018-03-03T08:26:48.070Z,84.10
2018-03-03T08:29:15.527Z,83.70
2018-03-03T08:31:43.000Z,84.10
2018-03-03T08:34:11.228Z,83.70
2018-03-03T08:36:38.706Z,83.60
2018-03-03T08:39:06.188Z,83.90
2018-03-03T08:41:34.407Z,84.20
2018-03-03T08:44:01.944Z,84.20
2018-03-03T08:46:29.390Z,84.20
2018-03-03T08:48:56.858Z,83.40
2018-03-03T08:51:24.361Z,83.10
2018-03-03T08:53:51.793Z,83.20
2018-03-03T08:56:19.263Z,83.50
2018-03-03T08:58:46.741Z,83.20
2018-03-03T09:01:14.184Z,83.50
2018-03-03T09:03:41.651Z,83.90
2018-03-03T09:06:09.092Z,83.20
2018-03-03T09:08:36.568Z,83.00
2018-03-03T09:11:04.046Z,83.30
2018-03-03T09:13:32.344Z,83.40
2018-03-03T09:15:59.824Z,83.30
2018-03-03T09:18:28.068Z,82.70
2018-03-03T09:20:55.520Z,82.70
2018-03-03T09:23:23.025Z,82.90
2018-03-03T09:25:50.536Z,82.90
2018-03-03T09:28:18.005Z,82.70
2018-03-03T09:30:45.510Z,81.30
2018-03-03T09:33:12.980Z,81.00
2018-03-03T09:35:40.476Z,80.70
2018-03-03T09:38:07.965Z,79.70
2018-03-03T09:40:35.420Z,79.10
2018-03-03T09:43:02.904Z,78.90
2018-03-03T09:45:30.404Z,79.40
2018-03-03T09:47:57.893Z,78.90
2018-03-03T09:50:25.366Z,77.40
2018-03-03T09:52:52.817Z,77.30
2018-03-03T09:55:20.258Z,76.70
2018-03-03T09:57:47.700Z,76.70
2018-03-03T10:00:15.168Z,76.60
2018-03-03T10:02:42.657Z,76.30
2018-03-03T10:05:10.121Z,75.80
2018-03-03T10:07:38.333Z,73.90
2018-03-03T10:10:05.815Z,73.80
2018-03-03T10:12:33.279Z,73.10
2018-03-03T10:15:00.758Z,71.60
2018-03-03T10:17:28.202Z,70.00
2018-03-03T10:19:55.673Z,68.10
2018-03-03T10:22:23.887Z,66.10
2018-03-03T10:24:51.362Z,65.70
2018-03-03T10:27:18.821Z,64.40
2018-03-03T10:29:46.259Z,63.00
2018-03-03T10:32:13.728Z,62.90
2018-03-03T10:34:41.205Z,61.20
2018-03-03T10:37:08.649Z,61.80
2018-03-03T10:39:36.088Z,61.20
2018-03-03T10:42:03.571Z,59.60
2018-03-03T10:44:31.009Z,60.10
2018-03-03T10:46:58.452Z,60.30
2018-03-03T10:49:26.499Z,60.70
2018-03-03T10:51:54.726Z,61.20
2018-03-03T10:54:22.196Z,61.10
2018-03-03T10:56:49.634Z,62.60
2018-03-03T10:59:17.093Z,64.50
2018-03-03T11:01:44.564Z,64.60
2018-03-03T11:04:12.028Z,64.50
2018-03-03T11:06:39.491Z,65.10
2018-03-03T11:09:06.938Z,65.20
2018-03-03T11:11:34.407Z,65.60
2018-03-03T11:14:01.869Z,64.80
2018-03-03T11:16:30.101Z,63.50
2018-03-03T11:18:57.558Z,63.40
2018-03-03T11:21:25.031Z,64.10
2018-03-03T11:23:52.485Z,64.80
2018-03-03T11:26:19.975Z,65.50
2018-03-03T11:28:48.189Z,66.50
2018-03-03T11:31:15.641Z,66.40
2018-03-03T11:33:43.100Z,67.80
2018-03-03T11:36:10.573Z,68.10
2018-03-03T11:38:38.070Z,69.00
2018-03-03T11:41:05.549Z,69.20
2018-03-03T11:43:33.010Z,69.70
2018-03-03T11:46:00.443Z,69.80
2018-03-03T11:48:28.693Z,70.20
2018-03-03T11:50:56.169Z,70.00
2018-03-03T11:53:24.388Z,71.60
2018-03-03T11:55:51.856Z,71.60
2018-03-03T11:58:19.379Z,70.70
2018-03-03T12:00:47.127Z,70.20
2018-03-03T12:03:15.354Z,71.80
2018-03-03T12:05:43.845Z,71.60
2018-03-03T12:08:11.345Z,70.90
2018-03-03T12:10:39.582Z,70.60
2018-03-03T12:13:07.029Z,70.50
2018-03-03T12:15:34.499Z,70.60
2018-03-03T12:18:02.373Z,69.50
2018-03-03T12:20:29.826Z,69.70
2018-03-03T12:22:57.294Z,70.00
2018-03-03T12:25:24.761Z,69.50
2018-03-03T12:27:52.203Z,71.10
2018-03-03T12:30:19.679Z,72.30
2018-03-03T12:32:47.900Z,72.90
2018-03-03T12:35:15.739Z,72.90
2018-03-03T12:37:43.944Z,72.10
2018-03-03T12:40:11.399Z,71.20
2018-03-03T12:42:38.869Z,71.50
2018-03-03T12:45:06.365Z,72.10
2018-03-03T12:47:33.872Z,71.70
2018-03-03T12:50:02.033Z,72.30
2018-03-03T12:52:29.511Z,72.30
2018-03-03T12:54:56.981Z,73.40
2018-03-03T12:57:24.444Z,73.40
2018-03-03T12:59:51.926Z,73.80
2018-03-03T13:02:20.160Z,73.60
2018-03-03T13:04:47.605Z,73.50
2018-03-03T13:07:15.093Z,73.70
2018-03-03T13:09:42.564Z,74.40
2018-03-03T13:12:10.806Z,74.60
2018-03-03T13:14:38.262Z,74.50
2018-03-03T13:17:05.737Z,74.90
2018-03-03T13:19:34.084Z,75.50
2018-03-03T13:22:01.595Z,75.10
2018-03-03T13:24:29.841Z,74.70
2018-03-03T13:26:57.318Z,74.50
2018-03-03T13:29:24.775Z,74.40
2018-03-03T13:31:52.244Z,72.90
2018-03-03T13:34:20.446Z,72.10
2018-03-03T13:36:47.916Z,72.00
2018-03-03T13:39:15.401Z,70.60
2018-03-03T13:41:42.872Z,70.20
2018-03-03T13:44:10.313Z,70.70
2018-03-03T13:46:37.801Z,70.30
2018-03-03T13:49:06.016Z,69.30
2018-03-03T13:51:34.251Z,68.30
2018-03-03T13:54:02.492Z,67.40
2018-03-03T13:56:29.932Z,67.30
2018-03-03T13:58:57.401Z,67.60
2018-03-03T14:01:24.877Z,68.20
2018-03-03T14:03:52.411Z,67.00
2018-03-03T14:06:19.876Z,66.60
2018-03-03T14:08:47.309Z,66.70
2018-03-03T14:11:14.770Z,66.80
2018-03-03T14:13:42.261Z,67.20
2018-03-03T14:16:09.720Z,66.80
2018-03-03T14:18:37.165Z,67.60
2018-03-03T14:21:04.642Z,67.70
2018-03-03T14:23:32.910Z,67.80
2018-03-03T14:26:00.377Z,67.70
2018-03-03T14:28:28.621Z,70.00
2018-03-03T14:30:56.087Z,69.80
2018-03-03T14:33:23.560Z,71.20
2018-03-03T14:35:51.784Z,72.50
2018-03-03T14:38:19.257Z,72.50
2018-03-03T14:40:46.704Z,72.20
2018-03-03T14:43:14.148Z,73.30
2018-03-03T14:45:41.601Z,73.60
2018-03-03T14:48:09.055Z,73.50
2018-03-03T14:50:36.524Z,73.90
2018-03-03T14:53:03.999Z,74.70
2018-03-03T14:55:31.437Z,74.70
2018-03-03T14:57:58.898Z,74.40
2018-03-03T15:00:26.353Z,74.30
2018-03-03T15:02:53.813Z,74.30
2018-03-03T15:05:21.289Z,74.20
2018-03-03T15:07:48.765Z,74.70
2018-03-03T15:10:16.251Z,75.60
2018-03-03T15:12:43.696Z,75.50
2018-03-03T15:15:11.161Z,75.20
2018-03-03T15:17:38.651Z,75.10
2018-03-03T15:20:06.152Z,74.70
2018-03-03T15:22:34.388Z,75.60
2018-03-03T15:25:01.833Z,75.50
2018-03-03T15:27:29.276Z,75.50
2018-03-03T15:29:56.952Z,76.10
2018-03-03T15:32:24.442Z,75.80
2018-03-03T15:34:51.912Z,75.80
2018-03-03T15:37:19.381Z,76.00
2018-03-03T15:42:19.226Z,75.80
2018-03-03T15:44:46.709Z,75.90
2018-03-03T15:47:14.189Z,76.40
2018-03-03T15:49:41.692Z,76.20
2018-03-03T15:52:09.913Z,76.50
2018-03-03T15:54:37.360Z,76.50
2018-03-03T15:57:04.844Z,76.00
2018-03-03T15:59:32.319Z,76.00
2018-03-03T16:02:00.566Z,76.40
2018-03-03T16:04:28.033Z,76.30
2018-03-03T16:06:55.529Z,76.10
2018-03-03T16:09:23.725Z,76.00
2018-03-03T16:11:51.185Z,76.00
2018-03-03T16:14:18.639Z,76.60
2018-03-03T16:16:46.133Z,76.70
2018-03-03T16:19:13.632Z,76.90
2018-03-03T16:21:41.077Z,77.50
2018-03-03T16:24:08.562Z,78.20
2018-03-03T16:26:36.027Z,78.30
2018-03-03T16:29:03.476Z,78.40
2018-03-03T16:31:30.928Z,79.00
2018-03-03T16:33:58.423Z,79.20
2018-03-03T16:36:25.897Z,78.90
2018-03-03T16:38:53.382Z,79.00
2018-03-03T16:41:21.283Z,79.10
2018-03-03T16:43:48.744Z,79.20
2018-03-03T16:46:16.226Z,79.30
2018-03-03T16:48:43.707Z,79.60
2018-03-03T16:51:11.161Z,79.90
2018-03-03T16:53:39.387Z,80.50
2018-03-03T16:56:06.864Z,80.40
2018-03-03T16:58:34.304Z,80.50
2018-03-03T17:01:01.805Z,80.80
2018-03-03T17:03:30.043Z,80.90
2018-03-03T17:05:57.488Z,80.80
2018-03-03T17:08:24.992Z,80.80
2018-03-03T17:10:52.430Z,80.80
2018-03-03T17:13:19.897Z,81.10
2018-03-03T17:15:48.150Z,81.60
2018-03-03T17:18:15.598Z,81.50
2018-03-03T17:20:43.076Z,81.70
2018-03-03T17:23:10.553Z,81.80
2018-03-03T17:25:38.791Z,82.20
2018-03-03T17:28:06.255Z,82.00
2018-03-03T17:30:34.621Z,82.30
2018-03-03T17:33:02.831Z,82.60
2018-03-03T17:35:31.085Z,82.50
2018-03-03T17:37:58.538Z,82.50
2018-03-03T17:40:26.012Z,82.40
2018-03-03T17:42:54.236Z,83.50
2018-03-03T17:45:21.712Z,82.80
2018-03-03T17:47:49.187Z,82.80
2018-03-03T17:50:16.688Z,83.00
2018-03-03T17:52:44.185Z,82.70
2018-03-03T17:55:11.650Z,82.60
2018-03-03T17:57:39.361Z,82.90
2018-03-03T18:00:06.829Z,82.60
2018-03-03T18:02:34.269Z,82.70
2018-03-03T18:05:01.748Z,82.80
2018-03-03T18:07:29.217Z,82.90
2018-03-03T18:09:56.705Z,82.60
2018-03-03T18:12:24.177Z,83.00
2018-03-03T18:14:52.424Z,82.60
2018-03-03T18:17:19.914Z,82.50
2018-03-03T18:19:48.145Z,82.80
2018-03-03T18:22:15.612Z,82.70
2018-03-03T18:24:43.056Z,82.50
2018-03-03T18:27:10.521Z,82.40
2018-03-03T18:29:37.977Z,82.40
2018-03-03T18:32:05.433Z,82.30
2018-03-03T18:34:34.797Z,82.50
2018-03-03T18:37:02.281Z,82.30
2018-03-03T18:39:29.758Z,82.20
2018-03-03T18:41:57.236Z,82.40
2018-03-03T18:44:24.698Z,82.40
2018-03-03T18:46:52.934Z,82.30
2018-03-03T18:49:20.384Z,82.20
2018-03-03T18:51:47.858Z,82.10
2018-03-03T18:54:15.334Z,82.00
2018-03-03T18:56:42.808Z,82.30
2018-03-03T18:59:11.032Z,82.20
2018-03-03T19:01:38.481Z,82.20
2018-03-03T19:04:06.696Z,82.30
2018-03-03T19:06:34.186Z,82.20
2018-03-03T19:09:01.682Z,82.10
2018-03-03T19:11:29.926Z,82.20
2018-03-03T19:13:57.399Z,82.20
2018-03-03T19:16:24.872Z,82.30
2018-03-03T19:18:52.342Z,82.10
2018-03-03T19:21:19.782Z,82.00
2018-03-03T19:23:47.261Z,81.80
2018-03-03T19:26:14.740Z,81.50
2018-03-03T19:28:42.958Z,81.00
2018-03-03T19:31:10.441Z,80.80
2018-03-03T19:33:37.915Z,81.70
2018-03-03T19:36:05.401Z,81.90
2018-03-03T19:38:32.852Z,82.40
2018-03-03T19:41:00.357Z,81.50
2018-03-03T19:43:27.813Z,81.50
2018-03-03T19:45:55.276Z,81.40
2018-03-03T19:48:22.738Z,81.10
2018-03-03T19:50:50.252Z,81.00
2018-03-03T19:53:17.784Z,81.60
2018-03-03T19:55:46.034Z,81.40
2018-03-03T19:58:13.515Z,81.20
2018-03-03T20:00:41.757Z,81.70
2018-03-03T20:03:09.233Z,81.60
2018-03-03T20:05:39.727Z,81.80
2018-03-03T20:08:07.192Z,81.60
2018-03-03T20:10:34.669Z,81.70
2018-03-03T20:13:02.144Z,81.80
2018-03-03T20:15:30.404Z,81.60
2018-03-03T20:17:58.039Z,81.50
2018-03-03T20:20:25.524Z,81.50
2018-03-03T20:22:53.012Z,81.70
2018-03-03T20:25:20.477Z,81.90
2018-03-03T20:27:47.988Z,82.00
2018-03-03T20:30:15.474Z,82.30
2018-03-03T20:32:43.828Z,82.40
2018-03-03T20:35:11.367Z,82.30
2018-03-03T20:37:38.837Z,82.20
2018-03-03T20:40:06.376Z,82.50
2018-03-03T20:42:33.902Z,82.20
2018-03-03T20:45:01.404Z,82.30
2018-03-03T20:47:28.964Z,82.40
2018-03-03T20:49:56.452Z,82.60
2018-03-03T20:52:24.769Z,82.70
2018-03-03T20:54:52.295Z,82.60
2018-03-03T20:57:20.622Z,82.80
2018-03-03T20:59:48.083Z,82.70
2018-03-03T21:02:15.599Z,82.90
2018-03-03T21:04:43.108Z,83.10
2018-03-03T21:07:10.590Z,83.40
2018-03-03T21:09:38.849Z,83.40
2018-03-03T21:12:11.910Z,83.40
2018-03-03T21:14:39.394Z,83.30
2018-03-03T21:17:06.874Z,83.30
2018-03-03T21:19:35.150Z,83.00
2018-03-03T21:22:02.660Z,82.90
2018-03-03T21:24:30.211Z,83.00
2018-03-03T21:26:58.469Z,83.40
2018-03-03T21:29:25.999Z,83.40
2018-03-03T21:31:54.251Z,83.50
2018-03-03T21:34:21.740Z,83.50
2018-03-03T21:36:49.262Z,83.20
2018-03-03T21:39:16.749Z,83.30
2018-03-03T21:41:45.016Z,83.40
2018-03-03T21:44:13.247Z,83.10
2018-03-03T21:46:40.730Z,83.10
2018-03-03T21:49:08.196Z,83.30
2018-03-03T21:51:35.671Z,83.10
2018-03-03T21:54:03.901Z,83.20
2018-03-03T21:56:32.141Z,83.10
2018-03-03T21:58:59.653Z,83.20
2018-03-03T22:01:27.097Z,83.20
2018-03-03T22:03:54.559Z,83.20
2018-03-03T22:06:22.008Z,83.10
2018-03-03T22:08:49.455Z,83.20
2018-03-03T22:11:16.955Z,83.10
2018-03-03T22:13:45.259Z,83.10
2018-03-03T22:16:12.741Z,83.10
2018-03-03T22:18:40.208Z,83.30
2018-03-03T22:21:07.693Z,83.30
2018-03-03T22:23:35.934Z,83.50
2018-03-03T22:26:03.419Z,83.20
2018-03-03T22:28:30.948Z,83.00
2018-03-03T22:30:58.455Z,82.70
2018-03-03T22:33:26.759Z,82.80
2018-03-03T22:35:54.218Z,82.70
2018-03-03T22:38:21.721Z,82.90
2018-03-03T22:40:49.177Z,82.70
2018-03-03T22:43:16.651Z,82.80
2018-03-03T22:45:44.911Z,82.50
2018-03-03T22:48:12.385Z,82.30
2018-03-03T22:50:39.855Z,82.30
2018-03-03T22:53:07.340Z,82.20
2018-03-03T22:55:34.890Z,82.40
2018-03-03T22:58:02.354Z,82.20
2018-03-03T23:00:29.828Z,82.30
2018-03-03T23:02:57.301Z,82.20
2018-03-03T23:05:24.740Z,82.30
2018-03-03T23:07:52.221Z,82.00
2018-03-03T23:10:19.668Z,82.00
2018-03-03T23:12:47.162Z,82.00
2018-03-03T23:15:15.393Z,81.80
2018-03-03T23:17:42.864Z,81.60
2018-03-03T23:20:10.333Z,81.80
2018-03-03T23:22:38.580Z,82.70
2018-03-03T23:25:06.103Z,82.00
2018-03-03T23:27:33.553Z,82.20
2018-03-03T23:30:01.003Z,82.20
2018-03-03T23:32:28.487Z,82.20
2018-03-03T23:34:55.959Z,82.50
2018-03-03T23:37:23.430Z,82.50
2018-03-03T23:39:50.886Z,82.60
2018-03-03T23:42:18.369Z,82.70
2018-03-03T23:44:46.618Z,83.30
2018-03-03T23:47:14.087Z,83.40
2018-03-03T23:49:41.529Z,83.60
2018-03-03T23:52:08.999Z,83.90
2018-03-03T23:54:36.460Z,84.20
2018-03-03T23:57:04.705Z,85.00
2018-03-03T23:59:32.189Z,85.10
